Terminal Aerodrome Forecast
Issued by NWS Boston, MA

Home | Current Version | Previous Version | Text Only | Print | Product List | Glossary On
Versions: 1 2 3 4 5 6 7 8 9 10 11 12 13 14 15 16 17 18 19 20 21 22
000
FTUS41 KBOX 240856 AAA
TAFPVD
TAF AMD
KPVD 240856Z 2409/2506 31015G28KT P6SM SCT250
     FM241500 32023G35KT P6SM FEW250
     FM242300 33015G28KT P6SM SKC
     FM250200 32010G20KT P6SM SKC=

USA.gov is the U.S. government's official web portal to all federal, state and local government web resources and services.